sensor_id;sensor_type;location;lat;lon;timestamp;P1;durP1;ratioP1;P2;durP2;ratioP2
44147;SDS011;29810;55.848;37.368;2022-12-07T00:00:41;6.90;;;2.83;;
44147;SDS011;29810;55.848;37.368;2022-12-07T00:03:44;5.75;;;2.55;;
44147;SDS011;29810;55.848;37.368;2022-12-07T00:06:50;5.45;;;2.92;;
44147;SDS011;29810;55.848;37.368;2022-12-07T00:09:53;6.47;;;3.05;;
44147;SDS011;29810;55.848;37.368;2022-12-07T00:12:54;5.35;;;2.85;;
44147;SDS011;29810;55.848;37.368;2022-12-07T00:15:59;8.60;;;3.00;;
44147;SDS011;29810;55.848;37.368;2022-12-07T00:19:02;6.30;;;3.00;;
44147;SDS011;29810;55.848;37.368;2022-12-07T00:22:05;5.72;;;3.25;;
44147;SDS011;29810;55.848;37.368;2022-12-07T00:25:06;6.28;;;2.85;;
44147;SDS011;29810;55.848;37.368;2022-12-07T00:28:08;6.25;;;2.85;;
44147;SDS011;29810;55.848;37.368;2022-12-07T00:31:12;7.07;;;3.05;;
44147;SDS011;29810;55.848;37.368;2022-12-07T00:34:16;5.45;;;2.90;;
44147;SDS011;29810;55.848;37.368;2022-12-07T00:37:19;6.72;;;3.37;;
44147;SDS011;29810;55.848;37.368;2022-12-07T00:40:21;8.05;;;3.22;;
44147;SDS011;29810;55.848;37.368;2022-12-07T00:43:23;6.55;;;3.03;;
44147;SDS011;29810;55.848;37.368;2022-12-07T00:46:25;5.62;;;3.10;;
44147;SDS011;29810;55.848;37.368;2022-12-07T00:49:26;6.22;;;2.92;;
44147;SDS011;29810;55.848;37.368;2022-12-07T00:52:28;9.65;;;3.50;;
44147;SDS011;29810;55.848;37.368;2022-12-07T00:55:32;5.60;;;3.30;;
44147;SDS011;29810;55.848;37.368;2022-12-07T00:58:35;6.15;;;3.37;;
44147;SDS011;29810;55.848;37.368;2022-12-07T01:01:36;8.85;;;3.70;;
44147;SDS011;29810;55.848;37.368;2022-12-07T01:04:38;5.53;;;3.08;;
44147;SDS011;29810;55.848;37.368;2022-12-07T01:07:39;6.55;;;3.40;;
44147;SDS011;29810;55.848;37.368;2022-12-07T01:10:41;6.20;;;3.45;;
44147;SDS011;29810;55.848;37.368;2022-12-07T01:13:42;6.07;;;3.10;;
44147;SDS011;29810;55.848;37.368;2022-12-07T01:16:45;7.22;;;3.12;;
44147;SDS011;29810;55.848;37.368;2022-12-07T01:19:46;7.20;;;3.62;;
44147;SDS011;29810;55.848;37.368;2022-12-07T01:22:48;7.00;;;3.20;;
44147;SDS011;29810;55.848;37.368;2022-12-07T01:25:59;6.93;;;3.25;;
44147;SDS011;29810;55.848;37.368;2022-12-07T01:29:02;7.57;;;3.55;;
44147;SDS011;29810;55.848;37.368;2022-12-07T01:32:04;8.23;;;3.58;;
44147;SDS011;29810;55.848;37.368;2022-12-07T01:35:06;6.28;;;2.97;;
44147;SDS011;29810;55.848;37.368;2022-12-07T01:38:08;8.98;;;3.53;;
44147;SDS011;29810;55.848;37.368;2022-12-07T01:41:09;8.80;;;3.50;;
44147;SDS011;29810;55.848;37.368;2022-12-07T01:44:22;6.97;;;3.58;;
44147;SDS011;29810;55.848;37.368;2022-12-07T01:47:34;8.45;;;3.72;;
44147;SDS011;29810;55.848;37.368;2022-12-07T01:50:36;8.10;;;3.50;;
44147;SDS011;29810;55.848;37.368;2022-12-07T01:53:40;7.68;;;3.78;;
44147;SDS011;29810;55.848;37.368;2022-12-07T01:59:51;5.47;;;3.00;;
44147;SDS011;29810;55.848;37.368;2022-12-07T02:03:00;7.15;;;3.60;;
44147;SDS011;29810;55.848;37.368;2022-12-07T02:06:09;6.03;;;3.28;;
44147;SDS011;29810;55.848;37.368;2022-12-07T02:09:12;7.60;;;3.37;;
44147;SDS011;29810;55.848;37.368;2022-12-07T02:12:15;11.00;;;3.72;;
44147;SDS011;29810;55.848;37.368;2022-12-07T02:39:04;8.52;;;4.03;;
44147;SDS011;29810;55.848;37.368;2022-12-07T02:42:14;9.35;;;3.53;;
44147;SDS011;29810;55.848;37.368;2022-12-07T02:45:21;7.53;;;3.60;;
44147;SDS011;29810;55.848;37.368;2022-12-07T02:48:26;6.78;;;3.60;;
44147;SDS011;29810;55.848;37.368;2022-12-07T02:51:29;9.48;;;4.05;;
44147;SDS011;29810;55.848;37.368;2022-12-07T02:54:32;6.60;;;3.87;;
44147;SDS011;29810;55.848;37.368;2022-12-07T03:11:53;10.30;;;3.95;;
44147;SDS011;29810;55.848;37.368;2022-12-07T03:15:06;8.48;;;3.80;;
44147;SDS011;29810;55.848;37.368;2022-12-07T03:18:11;8.80;;;3.85;;
44147;SDS011;29810;55.848;37.368;2022-12-07T03:21:19;6.43;;;3.70;;
44147;SDS011;29810;55.848;37.368;2022-12-07T03:24:29;8.38;;;3.60;;
44147;SDS011;29810;55.848;37.368;2022-12-07T03:27:39;7.85;;;3.67;;
44147;SDS011;29810;55.848;37.368;2022-12-07T03:30:57;13.07;;;4.25;;
44147;SDS011;29810;55.848;37.368;2022-12-07T03:37:26;8.73;;;3.78;;
44147;SDS011;29810;55.848;37.368;2022-12-07T03:40:42;7.05;;;3.40;;
44147;SDS011;29810;55.848;37.368;2022-12-07T03:43:57;9.00;;;3.60;;
44147;SDS011;29810;55.848;37.368;2022-12-07T03:50:58;7.30;;;3.75;;
44147;SDS011;29810;55.848;37.368;2022-12-07T03:54:30;6.85;;;3.67;;
44147;SDS011;29810;55.848;37.368;2022-12-07T03:57:37;9.48;;;3.70;;
44147;SDS011;29810;55.848;37.368;2022-12-07T04:00:42;9.25;;;3.90;;
44147;SDS011;29810;55.848;37.368;2022-12-07T04:03:44;9.15;;;3.83;;
44147;SDS011;29810;55.848;37.368;2022-12-07T04:06:46;8.82;;;3.83;;
44147;SDS011;29810;55.848;37.368;2022-12-07T04:09:48;8.10;;;3.97;;
44147;SDS011;29810;55.848;37.368;2022-12-07T04:12:49;8.43;;;3.83;;
44147;SDS011;29810;55.848;37.368;2022-12-07T04:15:52;9.95;;;4.00;;
44147;SDS011;29810;55.848;37.368;2022-12-07T04:18:53;8.85;;;3.70;;
44147;SDS011;29810;55.848;37.368;2022-12-07T04:21:56;9.05;;;4.62;;
44147;SDS011;29810;55.848;37.368;2022-12-07T04:24:58;9.73;;;3.80;;
44147;SDS011;29810;55.848;37.368;2022-12-07T04:28:00;7.87;;;4.15;;
44147;SDS011;29810;55.848;37.368;2022-12-07T04:31:01;7.00;;;3.70;;
44147;SDS011;29810;55.848;37.368;2022-12-07T04:34:03;8.10;;;3.55;;
44147;SDS011;29810;55.848;37.368;2022-12-07T04:37:05;9.02;;;4.47;;
44147;SDS011;29810;55.848;37.368;2022-12-07T04:40:07;8.13;;;4.10;;
44147;SDS011;29810;55.848;37.368;2022-12-07T04:43:11;7.53;;;4.05;;
44147;SDS011;29810;55.848;37.368;2022-12-07T04:46:13;10.55;;;4.30;;
44147;SDS011;29810;55.848;37.368;2022-12-07T04:49:15;7.22;;;3.72;;
44147;SDS011;29810;55.848;37.368;2022-12-07T04:52:17;7.80;;;4.05;;
44147;SDS011;29810;55.848;37.368;2022-12-07T04:55:18;11.07;;;3.67;;
44147;SDS011;29810;55.848;37.368;2022-12-07T04:58:20;9.57;;;4.10;;
44147;SDS011;29810;55.848;37.368;2022-12-07T05:01:22;7.93;;;4.32;;
44147;SDS011;29810;55.848;37.368;2022-12-07T05:04:25;9.18;;;3.95;;
44147;SDS011;29810;55.848;37.368;2022-12-07T05:07:26;6.62;;;3.75;;
44147;SDS011;29810;55.848;37.368;2022-12-07T05:10:28;7.25;;;4.10;;
44147;SDS011;29810;55.848;37.368;2022-12-07T05:13:29;10.77;;;4.47;;
44147;SDS011;29810;55.848;37.368;2022-12-07T05:16:31;7.72;;;4.30;;
44147;SDS011;29810;55.848;37.368;2022-12-07T05:19:33;7.32;;;4.03;;
44147;SDS011;29810;55.848;37.368;2022-12-07T05:22:35;8.50;;;3.67;;
44147;SDS011;29810;55.848;37.368;2022-12-07T05:25:36;7.37;;;4.00;;
44147;SDS011;29810;55.848;37.368;2022-12-07T05:29:03;8.45;;;3.62;;
44147;SDS011;29810;55.848;37.368;2022-12-07T05:32:05;9.02;;;4.15;;
44147;SDS011;29810;55.848;37.368;2022-12-07T05:35:07;8.52;;;3.70;;
44147;SDS011;29810;55.848;37.368;2022-12-07T05:38:08;7.37;;;3.80;;
44147;SDS011;29810;55.848;37.368;2022-12-07T05:41:12;8.23;;;3.70;;
44147;SDS011;29810;55.848;37.368;2022-12-07T05:44:34;7.25;;;3.90;;
44147;SDS011;29810;55.848;37.368;2022-12-07T05:47:36;6.22;;;3.70;;
44147;SDS011;29810;55.848;37.368;2022-12-07T05:50:38;8.38;;;3.58;;
44147;SDS011;29810;55.848;37.368;2022-12-07T05:53:39;6.30;;;3.33;;
44147;SDS011;29810;55.848;37.368;2022-12-07T05:56:41;7.45;;;3.37;;
44147;SDS011;29810;55.848;37.368;2022-12-07T05:59:42;8.02;;;3.47;;
44147;SDS011;29810;55.848;37.368;2022-12-07T06:02:44;7.32;;;3.50;;
44147;SDS011;29810;55.848;37.368;2022-12-07T06:05:46;9.43;;;4.10;;
44147;SDS011;29810;55.848;37.368;2022-12-07T06:12:05;9.30;;;3.87;;
44147;SDS011;29810;55.848;37.368;2022-12-07T06:15:26;10.02;;;3.80;;
44147;SDS011;29810;55.848;37.368;2022-12-07T06:18:28;10.48;;;3.42;;
44147;SDS011;29810;55.848;37.368;2022-12-07T06:21:29;7.75;;;3.62;;
44147;SDS011;29810;55.848;37.368;2022-12-07T06:24:32;7.95;;;3.58;;
44147;SDS011;29810;55.848;37.368;2022-12-07T06:27:33;9.00;;;3.65;;
44147;SDS011;29810;55.848;37.368;2022-12-07T06:30:36;8.90;;;4.30;;
44147;SDS011;29810;55.848;37.368;2022-12-07T06:33:38;10.05;;;4.15;;
44147;SDS011;29810;55.848;37.368;2022-12-07T06:36:39;8.98;;;4.07;;
44147;SDS011;29810;55.848;37.368;2022-12-07T06:39:41;8.70;;;4.43;;
44147;SDS011;29810;55.848;37.368;2022-12-07T06:42:43;8.00;;;3.95;;
44147;SDS011;29810;55.848;37.368;2022-12-07T06:45:47;8.77;;;4.25;;
44147;SDS011;29810;55.848;37.368;2022-12-07T06:48:48;9.27;;;4.50;;
44147;SDS011;29810;55.848;37.368;2022-12-07T06:51:50;7.95;;;4.40;;
44147;SDS011;29810;55.848;37.368;2022-12-07T06:54:52;10.43;;;4.15;;
44147;SDS011;29810;55.848;37.368;2022-12-07T06:57:53;9.60;;;4.62;;
44147;SDS011;29810;55.848;37.368;2022-12-07T07:00:55;7.85;;;4.50;;
44147;SDS011;29810;55.848;37.368;2022-12-07T07:03:57;10.73;;;4.93;;
44147;SDS011;29810;55.848;37.368;2022-12-07T07:07:08;8.60;;;4.03;;
44147;SDS011;29810;55.848;37.368;2022-12-07T07:10:10;7.72;;;4.10;;
44147;SDS011;29810;55.848;37.368;2022-12-07T07:13:12;7.87;;;4.20;;
44147;SDS011;29810;55.848;37.368;2022-12-07T07:16:13;9.45;;;3.97;;
44147;SDS011;29810;55.848;37.368;2022-12-07T07:19:15;9.30;;;4.82;;
44147;SDS011;29810;55.848;37.368;2022-12-07T07:22:17;7.00;;;3.92;;
44147;SDS011;29810;55.848;37.368;2022-12-07T07:25:19;8.15;;;4.78;;
44147;SDS011;29810;55.848;37.368;2022-12-07T07:28:20;10.38;;;5.12;;
44147;SDS011;29810;55.848;37.368;2022-12-07T07:31:22;7.28;;;4.28;;
44147;SDS011;29810;55.848;37.368;2022-12-07T07:34:23;9.98;;;5.37;;
44147;SDS011;29810;55.848;37.368;2022-12-07T07:37:25;12.27;;;5.40;;
44147;SDS011;29810;55.848;37.368;2022-12-07T07:40:27;8.43;;;5.03;;
44147;SDS011;29810;55.848;37.368;2022-12-07T07:43:32;9.68;;;4.70;;
44147;SDS011;29810;55.848;37.368;2022-12-07T07:46:34;9.93;;;4.72;;
44147;SDS011;29810;55.848;37.368;2022-12-07T07:49:36;9.70;;;4.95;;
44147;SDS011;29810;55.848;37.368;2022-12-07T07:52:37;11.07;;;5.50;;
44147;SDS011;29810;55.848;37.368;2022-12-07T07:55:39;11.40;;;5.50;;
44147;SDS011;29810;55.848;37.368;2022-12-07T07:58:40;9.63;;;5.00;;
44147;SDS011;29810;55.848;37.368;2022-12-07T08:01:42;11.40;;;5.47;;
44147;SDS011;29810;55.848;37.368;2022-12-07T08:04:44;10.60;;;4.97;;
44147;SDS011;29810;55.848;37.368;2022-12-07T08:07:46;10.75;;;5.22;;
44147;SDS011;29810;55.848;37.368;2022-12-07T08:10:48;10.05;;;5.03;;
44147;SDS011;29810;55.848;37.368;2022-12-07T08:13:49;11.43;;;5.12;;
44147;SDS011;29810;55.848;37.368;2022-12-07T08:16:51;9.32;;;4.68;;
44147;SDS011;29810;55.848;37.368;2022-12-07T08:19:53;12.88;;;5.87;;
44147;SDS011;29810;55.848;37.368;2022-12-07T08:22:54;10.07;;;5.60;;
44147;SDS011;29810;55.848;37.368;2022-12-07T08:26:06;9.73;;;4.90;;
44147;SDS011;29810;55.848;37.368;2022-12-07T08:29:13;11.02;;;5.62;;
44147;SDS011;29810;55.848;37.368;2022-12-07T08:32:15;14.45;;;5.28;;
44147;SDS011;29810;55.848;37.368;2022-12-07T08:35:17;11.00;;;5.40;;
44147;SDS011;29810;55.848;37.368;2022-12-07T08:38:18;13.15;;;6.10;;
44147;SDS011;29810;55.848;37.368;2022-12-07T08:41:22;9.43;;;5.35;;
44147;SDS011;29810;55.848;37.368;2022-12-07T08:44:23;12.37;;;6.15;;
44147;SDS011;29810;55.848;37.368;2022-12-07T08:47:25;14.40;;;6.30;;
44147;SDS011;29810;55.848;37.368;2022-12-07T08:50:27;12.13;;;5.45;;
44147;SDS011;29810;55.848;37.368;2022-12-07T08:53:29;9.93;;;5.43;;
44147;SDS011;29810;55.848;37.368;2022-12-07T08:56:31;10.90;;;5.82;;
44147;SDS011;29810;55.848;37.368;2022-12-07T08:59:33;11.85;;;5.70;;
44147;SDS011;29810;55.848;37.368;2022-12-07T09:02:36;15.23;;;5.85;;
44147;SDS011;29810;55.848;37.368;2022-12-07T09:05:38;11.60;;;5.60;;
44147;SDS011;29810;55.848;37.368;2022-12-07T09:08:41;11.35;;;5.65;;
44147;SDS011;29810;55.848;37.368;2022-12-07T09:11:47;11.20;;;5.50;;
44147;SDS011;29810;55.848;37.368;2022-12-07T09:14:48;12.57;;;5.57;;
44147;SDS011;29810;55.848;37.368;2022-12-07T09:17:50;11.60;;;6.10;;
44147;SDS011;29810;55.848;37.368;2022-12-07T09:20:52;13.55;;;6.28;;
44147;SDS011;29810;55.848;37.368;2022-12-07T09:23:54;15.10;;;5.65;;
44147;SDS011;29810;55.848;37.368;2022-12-07T09:26:56;11.85;;;5.85;;
44147;SDS011;29810;55.848;37.368;2022-12-07T09:29:58;14.07;;;6.20;;
44147;SDS011;29810;55.848;37.368;2022-12-07T09:33:01;12.48;;;5.62;;
44147;SDS011;29810;55.848;37.368;2022-12-07T09:36:02;11.63;;;5.20;;
44147;SDS011;29810;55.848;37.368;2022-12-07T09:39:04;10.05;;;5.20;;
44147;SDS011;29810;55.848;37.368;2022-12-07T09:42:06;9.68;;;5.25;;
44147;SDS011;29810;55.848;37.368;2022-12-07T09:45:17;11.73;;;6.30;;
44147;SDS011;29810;55.848;37.368;2022-12-07T09:48:30;12.68;;;5.80;;
44147;SDS011;29810;55.848;37.368;2022-12-07T09:51:34;10.95;;;5.32;;
44147;SDS011;29810;55.848;37.368;2022-12-07T09:54:40;13.73;;;5.43;;
44147;SDS011;29810;55.848;37.368;2022-12-07T09:57:44;10.60;;;5.43;;
44147;SDS011;29810;55.848;37.368;2022-12-07T10:00:47;11.75;;;5.85;;
44147;SDS011;29810;55.848;37.368;2022-12-07T10:03:50;11.73;;;4.93;;
44147;SDS011;29810;55.848;37.368;2022-12-07T10:06:54;14.50;;;5.70;;
44147;SDS011;29810;55.848;37.368;2022-12-07T10:09:55;14.57;;;5.30;;
44147;SDS011;29810;55.848;37.368;2022-12-07T10:12:58;11.27;;;4.82;;
44147;SDS011;29810;55.848;37.368;2022-12-07T10:16:01;9.75;;;5.43;;
44147;SDS011;29810;55.848;37.368;2022-12-07T10:19:36;11.93;;;5.20;;
44147;SDS011;29810;55.848;37.368;2022-12-07T10:22:34;12.30;;;5.22;;
44147;SDS011;29810;55.848;37.368;2022-12-07T10:25:36;14.43;;;5.93;;
44147;SDS011;29810;55.848;37.368;2022-12-07T10:28:39;14.32;;;6.00;;
44147;SDS011;29810;55.848;37.368;2022-12-07T10:31:40;11.48;;;5.82;;
44147;SDS011;29810;55.848;37.368;2022-12-07T10:34:43;14.27;;;5.90;;
44147;SDS011;29810;55.848;37.368;2022-12-07T10:37:45;10.63;;;5.05;;
44147;SDS011;29810;55.848;37.368;2022-12-07T10:40:47;10.25;;;5.35;;
44147;SDS011;29810;55.848;37.368;2022-12-07T10:43:52;15.02;;;5.50;;
44147;SDS011;29810;55.848;37.368;2022-12-07T10:56:45;15.98;;;5.50;;
44147;SDS011;29810;55.848;37.368;2022-12-07T11:00:29;12.98;;;5.32;;
44147;SDS011;29810;55.848;37.368;2022-12-07T11:17:11;9.05;;;5.00;;
44147;SDS011;29810;55.848;37.368;2022-12-07T11:20:29;9.63;;;5.03;;
44147;SDS011;29810;55.848;37.368;2022-12-07T11:39:38;10.77;;;4.80;;
44147;SDS011;29810;55.848;37.368;2022-12-07T11:46:39;14.98;;;5.82;;
44147;SDS011;29810;55.848;37.368;2022-12-07T11:49:53;11.95;;;5.22;;
44147;SDS011;29810;55.848;37.368;2022-12-07T11:56:16;10.05;;;5.60;;
44147;SDS011;29810;55.848;37.368;2022-12-07T11:59:31;11.55;;;6.28;;
44147;SDS011;29810;55.848;37.368;2022-12-07T12:02:49;12.32;;;6.00;;
44147;SDS011;29810;55.848;37.368;2022-12-07T12:05:53;10.98;;;5.80;;
44147;SDS011;29810;55.848;37.368;2022-12-07T12:15:44;12.80;;;6.95;;
44147;SDS011;29810;55.848;37.368;2022-12-07T12:22:13;13.23;;;6.22;;
44147;SDS011;29810;55.848;37.368;2022-12-07T12:25:26;16.95;;;7.22;;
44147;SDS011;29810;55.848;37.368;2022-12-07T12:28:41;17.75;;;7.68;;
44147;SDS011;29810;55.848;37.368;2022-12-07T12:35:32;13.30;;;6.15;;
44147;SDS011;29810;55.848;37.368;2022-12-07T12:38:48;15.52;;;7.35;;
44147;SDS011;29810;55.848;37.368;2022-12-07T12:41:59;17.02;;;7.22;;
44147;SDS011;29810;55.848;37.368;2022-12-07T12:45:02;17.40;;;7.22;;
44147;SDS011;29810;55.848;37.368;2022-12-07T12:48:48;13.70;;;6.93;;
44147;SDS011;29810;55.848;37.368;2022-12-07T12:51:38;12.65;;;6.65;;
44147;SDS011;29810;55.848;37.368;2022-12-07T12:55:00;17.35;;;7.47;;
44147;SDS011;29810;55.848;37.368;2022-12-07T13:04:39;15.30;;;7.32;;
44147;SDS011;29810;55.848;37.368;2022-12-07T13:10:46;15.27;;;7.05;;
44147;SDS011;29810;55.848;37.368;2022-12-07T13:13:48;16.05;;;7.65;;
44147;SDS011;29810;55.848;37.368;2022-12-07T13:16:50;15.77;;;7.97;;
44147;SDS011;29810;55.848;37.368;2022-12-07T13:22:53;15.05;;;7.28;;
44147;SDS011;29810;55.848;37.368;2022-12-07T13:29:22;16.17;;;8.07;;
44147;SDS011;29810;55.848;37.368;2022-12-07T13:32:27;15.55;;;8.27;;
44147;SDS011;29810;55.848;37.368;2022-12-07T13:35:33;16.55;;;7.00;;
44147;SDS011;29810;55.848;37.368;2022-12-07T13:38:38;17.50;;;7.97;;
44147;SDS011;29810;55.848;37.368;2022-12-07T13:41:43;15.30;;;7.85;;
44147;SDS011;29810;55.848;37.368;2022-12-07T13:44:45;17.23;;;8.40;;
44147;SDS011;29810;55.848;37.368;2022-12-07T13:47:52;17.65;;;8.52;;
44147;SDS011;29810;55.848;37.368;2022-12-07T13:50:57;19.10;;;8.07;;
44147;SDS011;29810;55.848;37.368;2022-12-07T13:54:01;19.70;;;8.23;;
44147;SDS011;29810;55.848;37.368;2022-12-07T13:57:12;15.85;;;7.87;;
44147;SDS011;29810;55.848;37.368;2022-12-07T14:00:35;18.23;;;9.45;;
44147;SDS011;29810;55.848;37.368;2022-12-07T14:03:36;14.48;;;7.65;;
44147;SDS011;29810;55.848;37.368;2022-12-07T14:06:46;17.92;;;8.18;;
44147;SDS011;29810;55.848;37.368;2022-12-07T14:09:55;15.93;;;7.72;;
44147;SDS011;29810;55.848;37.368;2022-12-07T14:12:59;15.75;;;8.02;;
44147;SDS011;29810;55.848;37.368;2022-12-07T14:16:15;15.05;;;7.93;;
44147;SDS011;29810;55.848;37.368;2022-12-07T14:19:40;14.90;;;8.00;;
44147;SDS011;29810;55.848;37.368;2022-12-07T14:22:54;20.05;;;9.15;;
44147;SDS011;29810;55.848;37.368;2022-12-07T14:26:05;13.45;;;7.45;;
44147;SDS011;29810;55.848;37.368;2022-12-07T14:29:29;15.40;;;7.30;;
44147;SDS011;29810;55.848;37.368;2022-12-07T14:32:35;12.02;;;6.25;;
44147;SDS011;29810;55.848;37.368;2022-12-07T14:35:41;15.57;;;7.20;;
44147;SDS011;29810;55.848;37.368;2022-12-07T14:38:43;15.68;;;8.30;;
44147;SDS011;29810;55.848;37.368;2022-12-07T14:41:45;15.52;;;6.97;;
44147;SDS011;29810;55.848;37.368;2022-12-07T14:44:53;15.68;;;7.40;;
44147;SDS011;29810;55.848;37.368;2022-12-07T14:47:54;15.05;;;7.45;;
44147;SDS011;29810;55.848;37.368;2022-12-07T14:50:58;15.65;;;7.37;;
44147;SDS011;29810;55.848;37.368;2022-12-07T14:54:03;18.17;;;8.63;;
44147;SDS011;29810;55.848;37.368;2022-12-07T14:57:07;15.80;;;7.12;;
44147;SDS011;29810;55.848;37.368;2022-12-07T15:03:44;15.23;;;6.75;;
44147;SDS011;29810;55.848;37.368;2022-12-07T15:07:02;12.98;;;6.78;;
44147;SDS011;29810;55.848;37.368;2022-12-07T15:10:05;13.45;;;7.03;;
44147;SDS011;29810;55.848;37.368;2022-12-07T15:13:14;15.07;;;7.68;;
44147;SDS011;29810;55.848;37.368;2022-12-07T15:16:37;15.80;;;7.35;;
44147;SDS011;29810;55.848;37.368;2022-12-07T15:19:41;16.20;;;8.07;;
44147;SDS011;29810;55.848;37.368;2022-12-07T15:22:43;11.45;;;6.03;;
44147;SDS011;29810;55.848;37.368;2022-12-07T15:25:46;18.87;;;8.13;;
44147;SDS011;29810;55.848;37.368;2022-12-07T15:28:52;18.00;;;7.12;;
44147;SDS011;29810;55.848;37.368;2022-12-07T15:31:55;14.32;;;6.57;;
44147;SDS011;29810;55.848;37.368;2022-12-07T15:34:57;14.50;;;7.78;;
44147;SDS011;29810;55.848;37.368;2022-12-07T15:37:59;14.45;;;7.55;;
44147;SDS011;29810;55.848;37.368;2022-12-07T15:41:03;15.48;;;8.18;;
44147;SDS011;29810;55.848;37.368;2022-12-07T15:44:05;13.00;;;7.65;;
44147;SDS011;29810;55.848;37.368;2022-12-07T15:47:25;16.52;;;7.82;;
44147;SDS011;29810;55.848;37.368;2022-12-07T15:50:27;13.32;;;6.75;;
44147;SDS011;29810;55.848;37.368;2022-12-07T15:53:29;17.27;;;7.80;;
44147;SDS011;29810;55.848;37.368;2022-12-07T15:56:31;14.00;;;6.90;;
44147;SDS011;29810;55.848;37.368;2022-12-07T15:59:36;16.45;;;7.82;;
44147;SDS011;29810;55.848;37.368;2022-12-07T16:02:38;16.75;;;7.80;;
44147;SDS011;29810;55.848;37.368;2022-12-07T16:05:40;15.30;;;8.05;;
44147;SDS011;29810;55.848;37.368;2022-12-07T16:08:42;17.15;;;7.65;;
44147;SDS011;29810;55.848;37.368;2022-12-07T16:11:45;11.23;;;5.20;;
44147;SDS011;29810;55.848;37.368;2022-12-07T16:14:47;14.45;;;7.32;;
44147;SDS011;29810;55.848;37.368;2022-12-07T16:17:48;15.18;;;6.82;;
44147;SDS011;29810;55.848;37.368;2022-12-07T16:20:50;14.93;;;7.20;;
44147;SDS011;29810;55.848;37.368;2022-12-07T16:23:53;15.13;;;7.57;;
44147;SDS011;29810;55.848;37.368;2022-12-07T16:26:55;15.50;;;6.95;;
44147;SDS011;29810;55.848;37.368;2022-12-07T16:29:57;15.23;;;7.20;;
44147;SDS011;29810;55.848;37.368;2022-12-07T16:33:01;11.57;;;6.15;;
44147;SDS011;29810;55.848;37.368;2022-12-07T16:36:03;14.25;;;6.82;;
44147;SDS011;29810;55.848;37.368;2022-12-07T16:39:06;17.77;;;7.53;;
44147;SDS011;29810;55.848;37.368;2022-12-07T16:42:09;12.55;;;6.95;;
44147;SDS011;29810;55.848;37.368;2022-12-07T16:45:32;17.35;;;7.78;;
44147;SDS011;29810;55.848;37.368;2022-12-07T16:48:37;16.33;;;7.68;;
44147;SDS011;29810;55.848;37.368;2022-12-07T16:54:43;16.25;;;8.07;;
44147;SDS011;29810;55.848;37.368;2022-12-07T16:57:45;14.87;;;7.07;;
44147;SDS011;29810;55.848;37.368;2022-12-07T17:00:47;17.62;;;7.50;;
44147;SDS011;29810;55.848;37.368;2022-12-07T17:03:49;16.70;;;8.30;;
44147;SDS011;29810;55.848;37.368;2022-12-07T17:06:51;16.67;;;7.47;;
44147;SDS011;29810;55.848;37.368;2022-12-07T17:09:52;16.42;;;7.60;;
44147;SDS011;29810;55.848;37.368;2022-12-07T17:12:54;16.70;;;7.72;;
44147;SDS011;29810;55.848;37.368;2022-12-07T17:15:57;14.50;;;7.55;;
44147;SDS011;29810;55.848;37.368;2022-12-07T17:19:06;13.85;;;7.65;;
44147;SDS011;29810;55.848;37.368;2022-12-07T17:22:10;17.10;;;8.07;;
44147;SDS011;29810;55.848;37.368;2022-12-07T17:25:13;15.23;;;7.53;;
44147;SDS011;29810;55.848;37.368;2022-12-07T17:28:16;17.02;;;7.87;;
44147;SDS011;29810;55.848;37.368;2022-12-07T17:31:19;15.00;;;7.78;;
44147;SDS011;29810;55.848;37.368;2022-12-07T17:34:22;15.15;;;8.05;;
44147;SDS011;29810;55.848;37.368;2022-12-07T17:37:24;14.27;;;7.50;;
44147;SDS011;29810;55.848;37.368;2022-12-07T17:40:26;14.50;;;7.50;;
44147;SDS011;29810;55.848;37.368;2022-12-07T17:43:28;14.07;;;7.22;;
44147;SDS011;29810;55.848;37.368;2022-12-07T17:46:29;17.05;;;7.60;;
44147;SDS011;29810;55.848;37.368;2022-12-07T17:49:31;14.43;;;7.22;;
44147;SDS011;29810;55.848;37.368;2022-12-07T17:52:33;16.35;;;7.70;;
44147;SDS011;29810;55.848;37.368;2022-12-07T17:55:56;13.73;;;7.97;;
44147;SDS011;29810;55.848;37.368;2022-12-07T17:58:57;12.25;;;6.80;;
44147;SDS011;29810;55.848;37.368;2022-12-07T18:01:59;14.20;;;6.62;;
44147;SDS011;29810;55.848;37.368;2022-12-07T18:05:01;13.95;;;6.40;;
44147;SDS011;29810;55.848;37.368;2022-12-07T18:08:04;14.25;;;6.97;;
44147;SDS011;29810;55.848;37.368;2022-12-07T18:11:06;14.65;;;6.60;;
44147;SDS011;29810;55.848;37.368;2022-12-07T18:14:08;13.32;;;6.85;;
44147;SDS011;29810;55.848;37.368;2022-12-07T18:17:09;14.30;;;7.37;;
44147;SDS011;29810;55.848;37.368;2022-12-07T18:20:11;16.05;;;7.72;;
44147;SDS011;29810;55.848;37.368;2022-12-07T18:23:13;14.27;;;6.43;;
44147;SDS011;29810;55.848;37.368;2022-12-07T18:26:15;13.15;;;7.12;;
44147;SDS011;29810;55.848;37.368;2022-12-07T18:29:18;14.52;;;7.20;;
44147;SDS011;29810;55.848;37.368;2022-12-07T18:32:20;15.27;;;7.37;;
44147;SDS011;29810;55.848;37.368;2022-12-07T18:35:22;12.90;;;6.55;;
44147;SDS011;29810;55.848;37.368;2022-12-07T18:38:23;12.23;;;6.87;;
44147;SDS011;29810;55.848;37.368;2022-12-07T18:41:25;14.45;;;6.82;;
44147;SDS011;29810;55.848;37.368;2022-12-07T18:44:26;16.02;;;6.90;;
44147;SDS011;29810;55.848;37.368;2022-12-07T18:47:28;16.45;;;7.25;;
44147;SDS011;29810;55.848;37.368;2022-12-07T18:50:30;13.95;;;7.07;;
44147;SDS011;29810;55.848;37.368;2022-12-07T18:53:32;13.07;;;6.60;;
44147;SDS011;29810;55.848;37.368;2022-12-07T18:56:34;13.10;;;6.60;;
44147;SDS011;29810;55.848;37.368;2022-12-07T18:59:36;13.70;;;6.70;;
44147;SDS011;29810;55.848;37.368;2022-12-07T19:02:49;14.02;;;6.87;;
44147;SDS011;29810;55.848;37.368;2022-12-07T19:05:52;16.25;;;7.18;;
44147;SDS011;29810;55.848;37.368;2022-12-07T19:08:57;15.65;;;7.35;;
44147;SDS011;29810;55.848;37.368;2022-12-07T19:12:01;16.10;;;7.55;;
44147;SDS011;29810;55.848;37.368;2022-12-07T19:15:05;14.05;;;7.45;;
44147;SDS011;29810;55.848;37.368;2022-12-07T19:18:08;13.95;;;6.60;;
44147;SDS011;29810;55.848;37.368;2022-12-07T19:21:12;16.75;;;6.97;;
44147;SDS011;29810;55.848;37.368;2022-12-07T19:24:15;15.02;;;6.80;;
44147;SDS011;29810;55.848;37.368;2022-12-07T19:27:17;14.20;;;6.62;;
44147;SDS011;29810;55.848;37.368;2022-12-07T19:30:20;13.88;;;6.07;;
44147;SDS011;29810;55.848;37.368;2022-12-07T19:33:22;11.38;;;6.15;;
44147;SDS011;29810;55.848;37.368;2022-12-07T19:36:23;15.77;;;6.78;;
44147;SDS011;29810;55.848;37.368;2022-12-07T19:39:25;15.02;;;6.30;;
44147;SDS011;29810;55.848;37.368;2022-12-07T19:42:27;13.57;;;6.80;;
44147;SDS011;29810;55.848;37.368;2022-12-07T19:45:28;13.95;;;6.57;;
44147;SDS011;29810;55.848;37.368;2022-12-07T19:48:33;13.43;;;6.85;;
44147;SDS011;29810;55.848;37.368;2022-12-07T19:51:34;15.45;;;6.85;;
44147;SDS011;29810;55.848;37.368;2022-12-07T19:54:36;10.45;;;5.87;;
44147;SDS011;29810;55.848;37.368;2022-12-07T19:57:40;15.38;;;6.22;;
44147;SDS011;29810;55.848;37.368;2022-12-07T20:00:44;12.98;;;6.40;;
44147;SDS011;29810;55.848;37.368;2022-12-07T20:03:48;14.07;;;6.97;;
44147;SDS011;29810;55.848;37.368;2022-12-07T20:06:50;12.32;;;6.20;;
44147;SDS011;29810;55.848;37.368;2022-12-07T20:09:56;12.70;;;6.40;;
44147;SDS011;29810;55.848;37.368;2022-12-07T20:12:57;13.48;;;6.87;;
44147;SDS011;29810;55.848;37.368;2022-12-07T20:16:25;13.50;;;5.65;;
44147;SDS011;29810;55.848;37.368;2022-12-07T20:19:27;11.98;;;6.47;;